sensor_id;sensor_type;location;lat;lon;timestamp;temperature;humidity
18454;DHT22;9356;52.202;20.950;2024-01-25T00:00:56;6.60;99.90
18454;DHT22;9356;52.202;20.950;2024-01-25T00:02:01;6.60;99.90
18454;DHT22;9356;52.202;20.950;2024-01-25T00:03:05;6.70;99.90
18454;DHT22;9356;52.202;20.950;2024-01-25T00:04:09;6.70;99.90
18454;DHT22;9356;52.202;20.950;2024-01-25T00:05:12;6.60;99.90
18454;DHT22;9356;52.202;20.950;2024-01-25T00:06:17;6.60;99.90
18454;DHT22;9356;52.202;20.950;2024-01-25T00:07:20;7.20;99.90
18454;DHT22;9356;52.202;20.950;2024-01-25T00:08:25;6.40;99.90
18454;DHT22;9356;52.202;20.950;2024-01-25T00:09:29;6.40;99.90
18454;DHT22;9356;52.202;20.950;2024-01-25T00:10:33;6.30;99.90
18454;DHT22;9356;52.202;20.950;2024-01-25T00:11:36;6.30;99.90
18454;DHT22;9356;52.202;20.950;2024-01-25T00:12:41;6.40;99.90
18454;DHT22;9356;52.202;20.950;2024-01-25T00:13:48;6.40;99.90
18454;DHT22;9356;52.202;20.950;2024-01-25T00:14:55;6.50;99.90
18454;DHT22;9356;52.202;20.950;2024-01-25T00:15:58;6.40;99.90
18454;DHT22;9356;52.202;20.950;2024-01-25T00:17:01;6.50;99.90
18454;DHT22;9356;52.202;20.950;2024-01-25T00:18:05;6.50;99.90
18454;DHT22;9356;52.202;20.950;2024-01-25T00:19:08;6.40;99.90
18454;DHT22;9356;52.202;20.950;2024-01-25T00:20:12;6.50;99.90
18454;DHT22;9356;52.202;20.950;2024-01-25T00:21:15;6.50;99.90
18454;DHT22;9356;52.202;20.950;2024-01-25T00:22:26;6.50;99.90
18454;DHT22;9356;52.202;20.950;2024-01-25T00:23:29;6.10;99.90
18454;DHT22;9356;52.202;20.950;2024-01-25T00:24:33;6.50;99.90
18454;DHT22;9356;52.202;20.950;2024-01-25T00:25:39;6.50;99.90
18454;DHT22;9356;52.202;20.950;2024-01-25T00:26:43;6.50;99.90
18454;DHT22;9356;52.202;20.950;2024-01-25T00:27:47;6.50;99.90
18454;DHT22;9356;52.202;20.950;2024-01-25T00:28:53;6.30;99.90
18454;DHT22;9356;52.202;20.950;2024-01-25T00:29:55;6.40;99.90
18454;DHT22;9356;52.202;20.950;2024-01-25T00:30:59;6.40;99.90
18454;DHT22;9356;52.202;20.950;2024-01-25T00:32:03;6.40;99.90
18454;DHT22;9356;52.202;20.950;2024-01-25T00:33:08;6.40;99.90
18454;DHT22;9356;52.202;20.950;2024-01-25T00:34:11;6.50;99.90
18454;DHT22;9356;52.202;20.950;2024-01-25T00:35:16;6.30;99.90
18454;DHT22;9356;52.202;20.950;2024-01-25T00:36:20;6.30;99.90
18454;DHT22;9356;52.202;20.950;2024-01-25T00:37:25;6.30;99.90
18454;DHT22;9356;52.202;20.950;2024-01-25T00:38:29;6.30;99.90
18454;DHT22;9356;52.202;20.950;2024-01-25T00:39:34;6.30;99.90
18454;DHT22;9356;52.202;20.950;2024-01-25T00:40:38;6.30;99.90
18454;DHT22;9356;52.202;20.950;2024-01-25T00:41:44;6.30;99.90
18454;DHT22;9356;52.202;20.950;2024-01-25T00:42:50;6.20;99.90
18454;DHT22;9356;52.202;20.950;2024-01-25T00:43:59;6.20;99.90
18454;DHT22;9356;52.202;20.950;2024-01-25T00:45:03;6.30;99.90
18454;DHT22;9356;52.202;20.950;2024-01-25T00:46:09;6.30;99.90
18454;DHT22;9356;52.202;20.950;2024-01-25T00:47:12;6.20;99.90
18454;DHT22;9356;52.202;20.950;2024-01-25T00:48:17;6.20;99.90
18454;DHT22;9356;52.202;20.950;2024-01-25T00:49:21;6.10;99.90
18454;DHT22;9356;52.202;20.950;2024-01-25T00:50:26;6.00;99.90
18454;DHT22;9356;52.202;20.950;2024-01-25T00:51:30;6.20;99.90
18454;DHT22;9356;52.202;20.950;2024-01-25T00:52:35;6.40;99.90
18454;DHT22;9356;52.202;20.950;2024-01-25T00:53:39;6.10;99.90
18454;DHT22;9356;52.202;20.950;2024-01-25T00:54:43;6.00;99.90
18454;DHT22;9356;52.202;20.950;2024-01-25T00:55:49;6.10;99.90
18454;DHT22;9356;52.202;20.950;2024-01-25T00:56:53;6.10;99.90
18454;DHT22;9356;52.202;20.950;2024-01-25T00:57:57;6.10;99.90
18454;DHT22;9356;52.202;20.950;2024-01-25T00:59:06;6.00;99.90
18454;DHT22;9356;52.202;20.950;2024-01-25T01:00:12;6.00;99.90
18454;DHT22;9356;52.202;20.950;2024-01-25T01:01:15;6.00;99.90
18454;DHT22;9356;52.202;20.950;2024-01-25T01:02:22;6.10;99.90
18454;DHT22;9356;52.202;20.950;2024-01-25T01:03:26;6.00;99.90
18454;DHT22;9356;52.202;20.950;2024-01-25T01:04:33;6.10;99.90
18454;DHT22;9356;52.202;20.950;2024-01-25T01:05:52;6.10;99.90
18454;DHT22;9356;52.202;20.950;2024-01-25T01:06:56;6.20;99.90
18454;DHT22;9356;52.202;20.950;2024-01-25T01:07:59;6.10;99.90
18454;DHT22;9356;52.202;20.950;2024-01-25T01:09:03;6.10;99.90
18454;DHT22;9356;52.202;20.950;2024-01-25T01:10:07;6.10;99.90
18454;DHT22;9356;52.202;20.950;2024-01-25T01:11:10;6.20;99.90
18454;DHT22;9356;52.202;20.950;2024-01-25T01:12:14;6.20;99.90
18454;DHT22;9356;52.202;20.950;2024-01-25T01:13:16;6.20;99.90
18454;DHT22;9356;52.202;20.950;2024-01-25T01:14:22;6.10;99.90
18454;DHT22;9356;52.202;20.950;2024-01-25T01:15:25;6.20;99.90
18454;DHT22;9356;52.202;20.950;2024-01-25T01:16:29;6.20;99.90
18454;DHT22;9356;52.202;20.950;2024-01-25T01:17:36;6.20;99.90
18454;DHT22;9356;52.202;20.950;2024-01-25T01:18:40;6.30;99.90
18454;DHT22;9356;52.202;20.950;2024-01-25T01:19:43;6.20;99.90
18454;DHT22;9356;52.202;20.950;2024-01-25T01:20:47;6.20;99.90
18454;DHT22;9356;52.202;20.950;2024-01-25T01:21:51;6.30;99.90
18454;DHT22;9356;52.202;20.950;2024-01-25T01:22:55;6.30;99.90
18454;DHT22;9356;52.202;20.950;2024-01-25T01:23:57;6.30;99.90
18454;DHT22;9356;52.202;20.950;2024-01-25T01:25:03;6.20;99.90
18454;DHT22;9356;52.202;20.950;2024-01-25T01:26:07;6.20;99.90
18454;DHT22;9356;52.202;20.950;2024-01-25T01:27:11;6.40;99.90
18454;DHT22;9356;52.202;20.950;2024-01-25T01:28:15;6.20;99.90
18454;DHT22;9356;52.202;20.950;2024-01-25T01:29:19;6.30;99.90
18454;DHT22;9356;52.202;20.950;2024-01-25T01:30:23;6.20;99.90
18454;DHT22;9356;52.202;20.950;2024-01-25T01:31:27;5.20;99.90
18454;DHT22;9356;52.202;20.950;2024-01-25T01:32:31;6.20;99.90
18454;DHT22;9356;52.202;20.950;2024-01-25T01:33:35;6.30;99.90
18454;DHT22;9356;52.202;20.950;2024-01-25T01:34:38;6.30;99.90
18454;DHT22;9356;52.202;20.950;2024-01-25T01:35:43;6.30;99.90
18454;DHT22;9356;52.202;20.950;2024-01-25T01:36:46;6.30;99.90
18454;DHT22;9356;52.202;20.950;2024-01-25T01:37:50;6.30;99.90
18454;DHT22;9356;52.202;20.950;2024-01-25T01:38:53;6.30;99.90
18454;DHT22;9356;52.202;20.950;2024-01-25T01:39:57;6.20;99.90
18454;DHT22;9356;52.202;20.950;2024-01-25T01:41:01;6.20;99.90
18454;DHT22;9356;52.202;20.950;2024-01-25T01:42:06;6.20;99.90
18454;DHT22;9356;52.202;20.950;2024-01-25T01:43:18;6.30;99.90
18454;DHT22;9356;52.202;20.950;2024-01-25T01:44:23;6.20;99.90
18454;DHT22;9356;52.202;20.950;2024-01-25T01:45:28;6.20;99.90
18454;DHT22;9356;52.202;20.950;2024-01-25T01:46:33;6.20;99.90
18454;DHT22;9356;52.202;20.950;2024-01-25T01:47:41;6.20;99.90
18454;DHT22;9356;52.202;20.950;2024-01-25T01:48:46;6.20;99.90
18454;DHT22;9356;52.202;20.950;2024-01-25T01:49:51;6.10;99.90
18454;DHT22;9356;52.202;20.950;2024-01-25T01:50:55;6.10;99.90
18454;DHT22;9356;52.202;20.950;2024-01-25T01:51:59;6.00;99.90
18454;DHT22;9356;52.202;20.950;2024-01-25T01:53:04;6.10;99.90
18454;DHT22;9356;52.202;20.950;2024-01-25T01:54:08;6.10;99.90
18454;DHT22;9356;52.202;20.950;2024-01-25T01:55:12;5.90;99.90
18454;DHT22;9356;52.202;20.950;2024-01-25T01:56:17;6.00;99.90
18454;DHT22;9356;52.202;20.950;2024-01-25T01:57:19;6.00;99.90
18454;DHT22;9356;52.202;20.950;2024-01-25T01:58:24;6.20;99.90
18454;DHT22;9356;52.202;20.950;2024-01-25T01:59:28;6.10;99.90
18454;DHT22;9356;52.202;20.950;2024-01-25T02:00:37;6.20;99.90
18454;DHT22;9356;52.202;20.950;2024-01-25T02:01:40;6.10;99.90
18454;DHT22;9356;52.202;20.950;2024-01-25T02:02:47;6.20;99.90
18454;DHT22;9356;52.202;20.950;2024-01-25T02:03:50;6.30;99.90
18454;DHT22;9356;52.202;20.950;2024-01-25T02:04:55;6.10;99.90
18454;DHT22;9356;52.202;20.950;2024-01-25T02:06:00;6.00;99.90
18454;DHT22;9356;52.202;20.950;2024-01-25T02:07:05;6.40;99.90
18454;DHT22;9356;52.202;20.950;2024-01-25T02:08:11;6.10;99.90
18454;DHT22;9356;52.202;20.950;2024-01-25T02:09:15;6.10;99.90
18454;DHT22;9356;52.202;20.950;2024-01-25T02:10:21;6.00;99.90
18454;DHT22;9356;52.202;20.950;2024-01-25T02:11:24;6.00;99.90
18454;DHT22;9356;52.202;20.950;2024-01-25T02:12:28;6.00;99.90
18454;DHT22;9356;52.202;20.950;2024-01-25T02:13:33;6.00;99.90
18454;DHT22;9356;52.202;20.950;2024-01-25T02:14:37;6.10;99.90
18454;DHT22;9356;52.202;20.950;2024-01-25T02:15:41;6.10;99.90
18454;DHT22;9356;52.202;20.950;2024-01-25T02:16:45;6.10;99.90
18454;DHT22;9356;52.202;20.950;2024-01-25T02:17:49;6.20;99.90
18454;DHT22;9356;52.202;20.950;2024-01-25T02:18:53;6.20;99.90
18454;DHT22;9356;52.202;20.950;2024-01-25T02:19:57;6.20;99.90
18454;DHT22;9356;52.202;20.950;2024-01-25T02:21:02;6.20;99.90
18454;DHT22;9356;52.202;20.950;2024-01-25T02:22:05;6.30;99.90
18454;DHT22;9356;52.202;20.950;2024-01-25T02:23:11;6.30;99.90
18454;DHT22;9356;52.202;20.950;2024-01-25T02:24:13;6.20;99.90
18454;DHT22;9356;52.202;20.950;2024-01-25T02:25:19;6.30;99.90
18454;DHT22;9356;52.202;20.950;2024-01-25T02:26:22;6.30;99.90
18454;DHT22;9356;52.202;20.950;2024-01-25T02:27:26;6.30;99.90
18454;DHT22;9356;52.202;20.950;2024-01-25T02:28:29;6.30;99.90
18454;DHT22;9356;52.202;20.950;2024-01-25T02:29:31;6.30;99.90
18454;DHT22;9356;52.202;20.950;2024-01-25T02:30:38;6.30;99.90
18454;DHT22;9356;52.202;20.950;2024-01-25T02:31:44;6.30;99.90
18454;DHT22;9356;52.202;20.950;2024-01-25T02:32:49;6.30;99.90
18454;DHT22;9356;52.202;20.950;2024-01-25T02:33:55;6.20;99.90
18454;DHT22;9356;52.202;20.950;2024-01-25T02:35:00;6.30;99.90
18454;DHT22;9356;52.202;20.950;2024-01-25T02:36:03;6.30;99.90
18454;DHT22;9356;52.202;20.950;2024-01-25T02:37:08;6.20;99.90
18454;DHT22;9356;52.202;20.950;2024-01-25T02:38:12;6.20;99.90
18454;DHT22;9356;52.202;20.950;2024-01-25T02:39:15;6.20;99.90
18454;DHT22;9356;52.202;20.950;2024-01-25T02:40:21;6.10;99.90
18454;DHT22;9356;52.202;20.950;2024-01-25T02:41:25;6.00;99.90
18454;DHT22;9356;52.202;20.950;2024-01-25T02:42:32;6.10;99.90
18454;DHT22;9356;52.202;20.950;2024-01-25T02:43:36;6.10;99.90
18454;DHT22;9356;52.202;20.950;2024-01-25T02:44:38;6.10;99.90
18454;DHT22;9356;52.202;20.950;2024-01-25T02:45:42;6.10;99.90
18454;DHT22;9356;52.202;20.950;2024-01-25T02:46:49;6.20;99.90
18454;DHT22;9356;52.202;20.950;2024-01-25T02:47:53;6.20;99.90
18454;DHT22;9356;52.202;20.950;2024-01-25T02:48:58;6.30;99.90
18454;DHT22;9356;52.202;20.950;2024-01-25T02:50:01;6.30;99.90
18454;DHT22;9356;52.202;20.950;2024-01-25T02:51:05;6.20;99.90
18454;DHT22;9356;52.202;20.950;2024-01-25T02:52:08;6.20;99.90
18454;DHT22;9356;52.202;20.950;2024-01-25T02:53:13;6.20;99.90
18454;DHT22;9356;52.202;20.950;2024-01-25T02:54:15;6.20;99.90
18454;DHT22;9356;52.202;20.950;2024-01-25T02:55:21;6.20;99.90
18454;DHT22;9356;52.202;20.950;2024-01-25T02:56:25;6.20;99.90
18454;DHT22;9356;52.202;20.950;2024-01-25T02:57:29;6.10;99.90
18454;DHT22;9356;52.202;20.950;2024-01-25T02:58:34;6.10;99.90
18454;DHT22;9356;52.202;20.950;2024-01-25T02:59:41;6.20;99.90
18454;DHT22;9356;52.202;20.950;2024-01-25T03:00:43;6.10;99.90
18454;DHT22;9356;52.202;20.950;2024-01-25T03:01:49;6.20;99.90
18454;DHT22;9356;52.202;20.950;2024-01-25T03:02:52;6.20;99.90
18454;DHT22;9356;52.202;20.950;2024-01-25T03:03:57;6.00;99.90
18454;DHT22;9356;52.202;20.950;2024-01-25T03:05:00;6.10;99.90
18454;DHT22;9356;52.202;20.950;2024-01-25T03:06:05;6.00;99.90
18454;DHT22;9356;52.202;20.950;2024-01-25T03:07:08;6.00;99.90
18454;DHT22;9356;52.202;20.950;2024-01-25T03:08:17;6.00;99.90
18454;DHT22;9356;52.202;20.950;2024-01-25T03:09:20;6.00;99.90
18454;DHT22;9356;52.202;20.950;2024-01-25T03:10:26;6.00;99.90
18454;DHT22;9356;52.202;20.950;2024-01-25T03:11:29;5.90;99.90
18454;DHT22;9356;52.202;20.950;2024-01-25T03:12:33;5.80;99.90
18454;DHT22;9356;52.202;20.950;2024-01-25T03:13:39;5.90;99.90
18454;DHT22;9356;52.202;20.950;2024-01-25T03:14:46;5.90;99.90
18454;DHT22;9356;52.202;20.950;2024-01-25T03:15:48;5.80;99.90
18454;DHT22;9356;52.202;20.950;2024-01-25T03:16:53;5.80;99.90
18454;DHT22;9356;52.202;20.950;2024-01-25T03:17:55;5.70;99.90
18454;DHT22;9356;52.202;20.950;2024-01-25T03:18:59;5.80;99.90
18454;DHT22;9356;52.202;20.950;2024-01-25T03:20:04;5.80;99.90
18454;DHT22;9356;52.202;20.950;2024-01-25T03:21:08;5.80;99.90
18454;DHT22;9356;52.202;20.950;2024-01-25T03:22:10;5.90;99.90
18454;DHT22;9356;52.202;20.950;2024-01-25T03:23:16;5.80;99.90
18454;DHT22;9356;52.202;20.950;2024-01-25T03:24:19;5.80;99.90
18454;DHT22;9356;52.202;20.950;2024-01-25T03:25:24;5.80;99.90
18454;DHT22;9356;52.202;20.950;2024-01-25T03:26:27;5.80;99.90
18454;DHT22;9356;52.202;20.950;2024-01-25T03:27:31;5.80;99.90
18454;DHT22;9356;52.202;20.950;2024-01-25T03:28:35;5.70;99.90
18454;DHT22;9356;52.202;20.950;2024-01-25T03:29:37;5.80;99.90
18454;DHT22;9356;52.202;20.950;2024-01-25T03:32:41;5.70;99.90
18454;DHT22;9356;52.202;20.950;2024-01-25T03:33:44;5.50;99.90
18454;DHT22;9356;52.202;20.950;2024-01-25T03:34:48;5.70;99.90
18454;DHT22;9356;52.202;20.950;2024-01-25T03:35:52;5.70;99.90
18454;DHT22;9356;52.202;20.950;2024-01-25T03:36:58;5.80;99.90
18454;DHT22;9356;52.202;20.950;2024-01-25T03:38:01;5.60;99.90
18454;DHT22;9356;52.202;20.950;2024-01-25T03:39:10;5.60;99.90
18454;DHT22;9356;52.202;20.950;2024-01-25T03:40:12;5.70;99.90
18454;DHT22;9356;52.202;20.950;2024-01-25T03:41:16;5.70;99.90
18454;DHT22;9356;52.202;20.950;2024-01-25T03:42:21;5.70;99.90
18454;DHT22;9356;52.202;20.950;2024-01-25T03:43:25;5.70;99.90
18454;DHT22;9356;52.202;20.950;2024-01-25T03:44:40;5.80;99.90
18454;DHT22;9356;52.202;20.950;2024-01-25T03:45:44;5.70;99.90
18454;DHT22;9356;52.202;20.950;2024-01-25T03:46:50;5.70;99.90
18454;DHT22;9356;52.202;20.950;2024-01-25T03:47:56;5.70;99.90
18454;DHT22;9356;52.202;20.950;2024-01-25T03:49:02;5.80;99.90
18454;DHT22;9356;52.202;20.950;2024-01-25T03:50:09;5.50;99.90
18454;DHT22;9356;52.202;20.950;2024-01-25T03:51:12;5.60;99.90
18454;DHT22;9356;52.202;20.950;2024-01-25T03:52:18;5.50;99.90
18454;DHT22;9356;52.202;20.950;2024-01-25T03:53:20;5.50;99.90
18454;DHT22;9356;52.202;20.950;2024-01-25T03:54:25;5.50;99.90
18454;DHT22;9356;52.202;20.950;2024-01-25T03:55:28;5.50;99.90
18454;DHT22;9356;52.202;20.950;2024-01-25T03:56:33;5.50;99.90
18454;DHT22;9356;52.202;20.950;2024-01-25T03:57:36;5.60;99.90
18454;DHT22;9356;52.202;20.950;2024-01-25T03:58:39;5.60;99.90
18454;DHT22;9356;52.202;20.950;2024-01-25T03:59:43;5.70;99.90
18454;DHT22;9356;52.202;20.950;2024-01-25T04:00:46;5.50;99.90
18454;DHT22;9356;52.202;20.950;2024-01-25T04:01:50;5.70;99.90
18454;DHT22;9356;52.202;20.950;2024-01-25T04:02:56;5.60;99.90
18454;DHT22;9356;52.202;20.950;2024-01-25T04:04:05;5.60;99.90
18454;DHT22;9356;52.202;20.950;2024-01-25T04:05:09;5.60;99.90
18454;DHT22;9356;52.202;20.950;2024-01-25T04:06:15;5.60;99.90
18454;DHT22;9356;52.202;20.950;2024-01-25T04:07:18;5.50;99.90
18454;DHT22;9356;52.202;20.950;2024-01-25T04:08:22;5.50;99.90
18454;DHT22;9356;52.202;20.950;2024-01-25T04:09:28;5.50;99.90
18454;DHT22;9356;52.202;20.950;2024-01-25T04:10:33;5.50;99.90
18454;DHT22;9356;52.202;20.950;2024-01-25T04:11:38;5.50;99.90
18454;DHT22;9356;52.202;20.950;2024-01-25T04:12:42;5.50;99.90
18454;DHT22;9356;52.202;20.950;2024-01-25T04:13:44;5.40;99.90
18454;DHT22;9356;52.202;20.950;2024-01-25T04:14:48;5.50;99.90
18454;DHT22;9356;52.202;20.950;2024-01-25T04:15:52;5.50;99.90
18454;DHT22;9356;52.202;20.950;2024-01-25T04:17:02;5.40;99.90
18454;DHT22;9356;52.202;20.950;2024-01-25T04:18:06;5.50;99.90
18454;DHT22;9356;52.202;20.950;2024-01-25T04:19:09;5.50;99.90
18454;DHT22;9356;52.202;20.950;2024-01-25T04:20:18;4.80;99.90
18454;DHT22;9356;52.202;20.950;2024-01-25T04:21:24;5.50;99.90
18454;DHT22;9356;52.202;20.950;2024-01-25T04:22:28;5.60;99.90
18454;DHT22;9356;52.202;20.950;2024-01-25T04:23:32;5.50;99.90
18454;DHT22;9356;52.202;20.950;2024-01-25T04:24:36;5.50;99.90
18454;DHT22;9356;52.202;20.950;2024-01-25T04:25:40;5.50;99.90
18454;DHT22;9356;52.202;20.950;2024-01-25T04:26:44;5.50;99.90
18454;DHT22;9356;52.202;20.950;2024-01-25T04:27:48;5.60;99.90
18454;DHT22;9356;52.202;20.950;2024-01-25T04:28:54;5.50;99.90
18454;DHT22;9356;52.202;20.950;2024-01-25T04:29:58;5.50;99.90
18454;DHT22;9356;52.202;20.950;2024-01-25T04:31:04;5.50;99.90
18454;DHT22;9356;52.202;20.950;2024-01-25T04:32:08;5.50;99.90
18454;DHT22;9356;52.202;20.950;2024-01-25T04:33:12;5.50;99.90
18454;DHT22;9356;52.202;20.950;2024-01-25T04:34:16;5.50;99.90
18454;DHT22;9356;52.202;20.950;2024-01-25T04:35:25;5.50;99.90
18454;DHT22;9356;52.202;20.950;2024-01-25T04:36:28;5.40;99.90
18454;DHT22;9356;52.202;20.950;2024-01-25T04:37:35;5.50;99.90
18454;DHT22;9356;52.202;20.950;2024-01-25T04:38:38;5.40;99.90
18454;DHT22;9356;52.202;20.950;2024-01-25T04:39:45;5.40;99.90
18454;DHT22;9356;52.202;20.950;2024-01-25T04:40:48;5.40;99.90
18454;DHT22;9356;52.202;20.950;2024-01-25T04:41:51;5.50;99.90
18454;DHT22;9356;52.202;20.950;2024-01-25T04:42:54;5.50;99.90
18454;DHT22;9356;52.202;20.950;2024-01-25T04:43:59;5.50;99.90
18454;DHT22;9356;52.202;20.950;2024-01-25T04:45:04;4.70;99.90
18454;DHT22;9356;52.202;20.950;2024-01-25T04:46:10;5.50;99.90
18454;DHT22;9356;52.202;20.950;2024-01-25T04:47:12;5.60;99.90
18454;DHT22;9356;52.202;20.950;2024-01-25T04:48:20;5.50;99.90
18454;DHT22;9356;52.202;20.950;2024-01-25T04:49:22;5.50;99.90
18454;DHT22;9356;52.202;20.950;2024-01-25T04:50:28;5.50;99.90
18454;DHT22;9356;52.202;20.950;2024-01-25T04:51:31;5.50;99.90
18454;DHT22;9356;52.202;20.950;2024-01-25T04:52:35;5.60;99.90
18454;DHT22;9356;52.202;20.950;2024-01-25T04:53:38;5.50;99.90
18454;DHT22;9356;52.202;20.950;2024-01-25T04:54:46;5.50;99.90
18454;DHT22;9356;52.202;20.950;2024-01-25T04:55:49;5.50;99.90
18454;DHT22;9356;52.202;20.950;2024-01-25T04:56:56;5.40;99.90
18454;DHT22;9356;52.202;20.950;2024-01-25T04:57:59;5.50;99.90
18454;DHT22;9356;52.202;20.950;2024-01-25T04:59:06;5.50;99.90
18454;DHT22;9356;52.202;20.950;2024-01-25T05:00:10;5.50;99.90
18454;DHT22;9356;52.202;20.950;2024-01-25T05:01:14;5.50;99.90
18454;DHT22;9356;52.202;20.950;2024-01-25T05:02:16;5.50;99.90
18454;DHT22;9356;52.202;20.950;2024-01-25T05:03:25;5.60;99.90
18454;DHT22;9356;52.202;20.950;2024-01-25T05:04:30;5.60;99.90
18454;DHT22;9356;52.202;20.950;2024-01-25T05:05:36;5.60;99.90
18454;DHT22;9356;52.202;20.950;2024-01-25T05:06:42;5.60;99.90
18454;DHT22;9356;52.202;20.950;2024-01-25T05:07:46;5.60;99.90
18454;DHT22;9356;52.202;20.950;2024-01-25T05:08:49;5.60;99.90
18454;DHT22;9356;52.202;20.950;2024-01-25T05:09:55;5.50;99.90
18454;DHT22;9356;52.202;20.950;2024-01-25T05:10:58;5.60;99.90
18454;DHT22;9356;52.202;20.950;2024-01-25T05:12:05;5.50;99.90
18454;DHT22;9356;52.202;20.950;2024-01-25T05:13:09;5.40;99.90
18454;DHT22;9356;52.202;20.950;2024-01-25T05:14:13;5.50;99.90
18454;DHT22;9356;52.202;20.950;2024-01-25T05:15:17;5.40;99.90
18454;DHT22;9356;52.202;20.950;2024-01-25T05:16:22;5.50;99.90
18454;DHT22;9356;52.202;20.950;2024-01-25T05:17:27;5.40;99.90
18454;DHT22;9356;52.202;20.950;2024-01-25T05:18:30;5.50;99.90
18454;DHT22;9356;52.202;20.950;2024-01-25T05:19:34;5.60;99.90
18454;DHT22;9356;52.202;20.950;2024-01-25T05:20:37;5.50;99.90
18454;DHT22;9356;52.202;20.950;2024-01-25T05:21:41;5.50;99.90
18454;DHT22;9356;52.202;20.950;2024-01-25T05:22:48;5.60;99.90
18454;DHT22;9356;52.202;20.950;2024-01-25T05:23:51;5.60;99.90
18454;DHT22;9356;52.202;20.950;2024-01-25T05:24:56;5.60;99.90
18454;DHT22;9356;52.202;20.950;2024-01-25T05:26:01;5.50;99.90
18454;DHT22;9356;52.202;20.950;2024-01-25T05:27:05;5.60;99.90
18454;DHT22;9356;52.202;20.950;2024-01-25T05:28:09;5.60;99.90
18454;DHT22;9356;52.202;20.950;2024-01-25T05:29:12;5.70;99.90
18454;DHT22;9356;52.202;20.950;2024-01-25T05:30:16;5.70;99.90
18454;DHT22;9356;52.202;20.950;2024-01-25T05:31:20;5.60;99.90
18454;DHT22;9356;52.202;20.950;2024-01-25T05:32:26;5.50;99.90
18454;DHT22;9356;52.202;20.950;2024-01-25T05:33:31;5.60;99.90
18454;DHT22;9356;52.202;20.950;2024-01-25T05:34:34;5.60;99.90
18454;DHT22;9356;52.202;20.950;2024-01-25T05:35:39;5.60;99.90
18454;DHT22;9356;52.202;20.950;2024-01-25T05:36:42;5.60;99.90
18454;DHT22;9356;52.202;20.950;2024-01-25T05:37:46;5.60;99.90
18454;DHT22;9356;52.202;20.950;2024-01-25T05:38:49;5.60;99.90
18454;DHT22;9356;52.202;20.950;2024-01-25T05:39:56;5.50;99.90
18454;DHT22;9356;52.202;20.950;2024-01-25T05:40:59;5.50;99.90
18454;DHT22;9356;52.202;20.950;2024-01-25T05:42:05;5.50;99.90
18454;DHT22;9356;52.202;20.950;2024-01-25T05:43:07;5.60;99.90
18454;DHT22;9356;52.202;20.950;2024-01-25T05:44:12;5.60;99.90
18454;DHT22;9356;52.202;20.950;2024-01-25T05:45:17;5.70;99.90
18454;DHT22;9356;52.202;20.950;2024-01-25T05:46:24;5.80;99.90
18454;DHT22;9356;52.202;20.950;2024-01-25T05:47:29;5.80;99.90
18454;DHT22;9356;52.202;20.950;2024-01-25T05:48:33;5.90;99.90
18454;DHT22;9356;52.202;20.950;2024-01-25T05:49:36;5.90;99.90
18454;DHT22;9356;52.202;20.950;2024-01-25T05:50:42;5.90;99.90
18454;DHT22;9356;52.202;20.950;2024-01-25T05:51:45;5.90;99.90
18454;DHT22;9356;52.202;20.950;2024-01-25T05:52:49;6.00;99.90
18454;DHT22;9356;52.202;20.950;2024-01-25T05:53:52;5.90;99.90
18454;DHT22;9356;52.202;20.950;2024-01-25T05:54:58;6.00;99.90
18454;DHT22;9356;52.202;20.950;2024-01-25T05:56:06;6.20;99.90
18454;DHT22;9356;52.202;20.950;2024-01-25T05:57:16;6.00;99.90
18454;DHT22;9356;52.202;20.950;2024-01-25T05:58:22;5.90;99.90
18454;DHT22;9356;52.202;20.950;2024-01-25T05:59:27;5.90;99.90
18454;DHT22;9356;52.202;20.950;2024-01-25T06:00:31;6.00;99.90
18454;DHT22;9356;52.202;20.950;2024-01-25T06:01:35;5.90;99.90
18454;DHT22;9356;52.202;20.950;2024-01-25T06:02:38;6.00;99.90
18454;DHT22;9356;52.202;20.950;2024-01-25T06:03:49;5.80;99.90
18454;DHT22;9356;52.202;20.950;2024-01-25T06:04:57;5.90;99.90
18454;DHT22;9356;52.202;20.950;2024-01-25T06:06:02;5.90;99.90
18454;DHT22;9356;52.202;20.950;2024-01-25T06:07:06;5.90;99.90
18454;DHT22;9356;52.202;20.950;2024-01-25T06:08:10;5.90;99.90
18454;DHT22;9356;52.202;20.950;2024-01-25T06:09:14;5.90;99.90
18454;DHT22;9356;52.202;20.950;2024-01-25T06:10:26;6.00;99.90
18454;DHT22;9356;52.202;20.950;2024-01-25T06:11:29;5.70;99.90
18454;DHT22;9356;52.202;20.950;2024-01-25T06:12:33;5.80;99.90
18454;DHT22;9356;52.202;20.950;2024-01-25T06:13:38;5.80;99.90
18454;DHT22;9356;52.202;20.950;2024-01-25T06:14:42;5.80;99.90
18454;DHT22;9356;52.202;20.950;2024-01-25T06:15:45;5.90;99.90
18454;DHT22;9356;52.202;20.950;2024-01-25T06:16:53;6.00;99.90
18454;DHT22;9356;52.202;20.950;2024-01-25T06:17:56;5.90;99.90
18454;DHT22;9356;52.202;20.950;2024-01-25T06:19:04;5.90;99.90
18454;DHT22;9356;52.202;20.950;2024-01-25T06:20:10;5.90;99.90
18454;DHT22;9356;52.202;20.950;2024-01-25T06:21:14;5.90;99.90
18454;DHT22;9356;52.202;20.950;2024-01-25T06:22:20;5.90;99.90
18454;DHT22;9356;52.202;20.950;2024-01-25T06:23:24;5.90;99.90
18454;DHT22;9356;52.202;20.950;2024-01-25T06:24:27;5.90;99.90
18454;DHT22;9356;52.202;20.950;2024-01-25T06:25:32;5.90;99.90
18454;DHT22;9356;52.202;20.950;2024-01-25T06:26:36;5.70;99.90
18454;DHT22;9356;52.202;20.950;2024-01-25T06:27:41;5.80;99.90
18454;DHT22;9356;52.202;20.950;2024-01-25T06:28:45;5.80;99.90
18454;DHT22;9356;52.202;20.950;2024-01-25T06:29:48;5.70;99.90
18454;DHT22;9356;52.202;20.950;2024-01-25T06:30:52;5.70;99.90
18454;DHT22;9356;52.202;20.950;2024-01-25T06:31:55;5.70;99.90
18454;DHT22;9356;52.202;20.950;2024-01-25T06:33:03;5.70;99.90
18454;DHT22;9356;52.202;20.950;2024-01-25T06:34:06;5.80;99.90
18454;DHT22;9356;52.202;20.950;2024-01-25T06:35:09;5.80;99.90
18454;DHT22;9356;52.202;20.950;2024-01-25T06:36:17;5.80;99.90
18454;DHT22;9356;52.202;20.950;2024-01-25T06:37:20;5.80;99.90
18454;DHT22;9356;52.202;20.950;2024-01-25T06:38:24;5.80;99.90
18454;DHT22;9356;52.202;20.950;2024-01-25T06:39:28;5.90;99.90
18454;DHT22;9356;52.202;20.950;2024-01-25T06:40:33;5.80;99.90
18454;DHT22;9356;52.202;20.950;2024-01-25T06:41:37;5.70;99.90
18454;DHT22;9356;52.202;20.950;2024-01-25T06:42:40;5.70;99.90
18454;DHT22;9356;52.202;20.950;2024-01-25T06:43:45;5.70;99.90
18454;DHT22;9356;52.202;20.950;2024-01-25T06:44:49;5.70;99.90
18454;DHT22;9356;52.202;20.950;2024-01-25T06:45:58;5.80;99.90
18454;DHT22;9356;52.202;20.950;2024-01-25T06:47:01;5.80;99.90
18454;DHT22;9356;52.202;20.950;2024-01-25T06:48:06;5.80;99.90
18454;DHT22;9356;52.202;20.950;2024-01-25T06:49:11;5.70;99.90
18454;DHT22;9356;52.202;20.950;2024-01-25T06:50:16;5.70;99.90
18454;DHT22;9356;52.202;20.950;2024-01-25T06:51:19;5.80;99.90
18454;DHT22;9356;52.202;20.950;2024-01-25T06:52:25;5.90;99.90
18454;DHT22;9356;52.202;20.950;2024-01-25T06:53:30;5.80;99.90
18454;DHT22;9356;52.202;20.950;2024-01-25T06:54:34;5.80;99.90
18454;DHT22;9356;52.202;20.950;2024-01-25T06:55:38;5.90;99.90
18454;DHT22;9356;52.202;20.950;2024-01-25T06:56:42;5.90;99.90